sensor_id;sensor_type;location;lat;lon;timestamp;P1;durP1;ratioP1;P2;durP2;ratioP2
47433;SDS011;33184;48.774;8.918;2023-05-29T00:04:46;8.52;;;3.70;;
47433;SDS011;33184;48.774;8.918;2023-05-29T00:10:08;7.85;;;3.78;;
47433;SDS011;33184;48.774;8.918;2023-05-29T00:15:29;5.65;;;4.38;;
47433;SDS011;33184;48.774;8.918;2023-05-29T00:20:50;9.93;;;4.03;;
47433;SDS011;33184;48.774;8.918;2023-05-29T00:26:12;7.35;;;4.47;;
47433;SDS011;33184;48.774;8.918;2023-05-29T00:31:36;6.97;;;3.67;;
47433;SDS011;33184;48.774;8.918;2023-05-29T00:36:56;7.20;;;3.92;;
47433;SDS011;33184;48.774;8.918;2023-05-29T00:42:17;8.60;;;4.00;;
47433;SDS011;33184;48.774;8.918;2023-05-29T00:47:38;6.00;;;3.65;;
47433;SDS011;33184;48.774;8.918;2023-05-29T00:53:00;10.93;;;4.72;;
47433;SDS011;33184;48.774;8.918;2023-05-29T00:58:22;6.57;;;4.07;;
47433;SDS011;33184;48.774;8.918;2023-05-29T01:03:43;9.43;;;4.18;;
47433;SDS011;33184;48.774;8.918;2023-05-29T01:09:05;9.50;;;5.25;;
47433;SDS011;33184;48.774;8.918;2023-05-29T01:20:04;9.52;;;4.20;;
47433;SDS011;33184;48.774;8.918;2023-05-29T01:26:11;5.60;;;3.80;;
47433;SDS011;33184;48.774;8.918;2023-05-29T01:31:37;5.30;;;3.28;;
47433;SDS011;33184;48.774;8.918;2023-05-29T01:36:59;6.65;;;3.88;;
47433;SDS011;33184;48.774;8.918;2023-05-29T01:42:20;6.50;;;3.88;;
47433;SDS011;33184;48.774;8.918;2023-05-29T01:47:42;5.43;;;3.67;;
47433;SDS011;33184;48.774;8.918;2023-05-29T01:53:03;7.75;;;3.42;;
47433;SDS011;33184;48.774;8.918;2023-05-29T01:58:23;9.18;;;5.22;;
47433;SDS011;33184;48.774;8.918;2023-05-29T02:03:46;6.68;;;3.75;;
47433;SDS011;33184;48.774;8.918;2023-05-29T02:09:06;6.28;;;3.58;;
47433;SDS011;33184;48.774;8.918;2023-05-29T02:14:27;5.10;;;3.50;;
47433;SDS011;33184;48.774;8.918;2023-05-29T02:19:48;8.75;;;4.03;;
47433;SDS011;33184;48.774;8.918;2023-05-29T02:25:10;4.65;;;3.17;;
47433;SDS011;33184;48.774;8.918;2023-05-29T02:30:30;6.13;;;3.25;;
47433;SDS011;33184;48.774;8.918;2023-05-29T02:35:51;8.50;;;3.85;;
47433;SDS011;33184;48.774;8.918;2023-05-29T02:41:11;5.65;;;3.38;;
47433;SDS011;33184;48.774;8.918;2023-05-29T02:46:32;6.30;;;4.28;;
47433;SDS011;33184;48.774;8.918;2023-05-29T02:51:53;6.60;;;3.63;;
47433;SDS011;33184;48.774;8.918;2023-05-29T02:57:17;7.75;;;4.03;;
47433;SDS011;33184;48.774;8.918;2023-05-29T03:02:37;6.28;;;3.85;;
47433;SDS011;33184;48.774;8.918;2023-05-29T03:07:58;6.20;;;3.95;;
47433;SDS011;33184;48.774;8.918;2023-05-29T03:13:18;8.02;;;3.92;;
47433;SDS011;33184;48.774;8.918;2023-05-29T03:18:46;5.50;;;3.75;;
47433;SDS011;33184;48.774;8.918;2023-05-29T03:24:09;7.65;;;4.07;;
47433;SDS011;33184;48.774;8.918;2023-05-29T03:29:32;5.78;;;3.65;;
47433;SDS011;33184;48.774;8.918;2023-05-29T03:34:53;7.95;;;3.53;;
47433;SDS011;33184;48.774;8.918;2023-05-29T03:40:13;6.88;;;3.65;;
47433;SDS011;33184;48.774;8.918;2023-05-29T03:45:34;7.93;;;4.32;;
47433;SDS011;33184;48.774;8.918;2023-05-29T03:50:55;6.38;;;3.47;;
47433;SDS011;33184;48.774;8.918;2023-05-29T03:56:22;8.80;;;3.85;;
47433;SDS011;33184;48.774;8.918;2023-05-29T04:01:44;6.85;;;3.72;;
47433;SDS011;33184;48.774;8.918;2023-05-29T04:07:05;9.70;;;3.67;;
47433;SDS011;33184;48.774;8.918;2023-05-29T04:12:27;5.47;;;3.00;;
47433;SDS011;33184;48.774;8.918;2023-05-29T04:17:49;7.80;;;4.00;;
47433;SDS011;33184;48.774;8.918;2023-05-29T04:23:10;7.50;;;3.50;;
47433;SDS011;33184;48.774;8.918;2023-05-29T04:28:31;8.65;;;3.55;;
47433;SDS011;33184;48.774;8.918;2023-05-29T04:33:53;7.82;;;4.20;;
47433;SDS011;33184;48.774;8.918;2023-05-29T04:39:17;6.38;;;3.67;;
47433;SDS011;33184;48.774;8.918;2023-05-29T04:44:38;8.10;;;3.20;;
47433;SDS011;33184;48.774;8.918;2023-05-29T04:49:59;7.93;;;3.55;;
47433;SDS011;33184;48.774;8.918;2023-05-29T04:55:20;6.65;;;4.22;;
47433;SDS011;33184;48.774;8.918;2023-05-29T05:00:41;6.05;;;4.15;;
47433;SDS011;33184;48.774;8.918;2023-05-29T05:06:03;6.88;;;4.43;;
47433;SDS011;33184;48.774;8.918;2023-05-29T05:11:26;7.15;;;4.00;;
47433;SDS011;33184;48.774;8.918;2023-05-29T05:16:47;5.63;;;3.55;;
47433;SDS011;33184;48.774;8.918;2023-05-29T05:22:08;7.65;;;3.00;;
47433;SDS011;33184;48.774;8.918;2023-05-29T05:27:29;5.72;;;3.47;;
47433;SDS011;33184;48.774;8.918;2023-05-29T05:32:50;6.78;;;3.53;;
47433;SDS011;33184;48.774;8.918;2023-05-29T05:38:11;4.15;;;2.58;;
47433;SDS011;33184;48.774;8.918;2023-05-29T05:43:32;5.90;;;2.75;;
47433;SDS011;33184;48.774;8.918;2023-05-29T05:49:02;5.47;;;3.20;;
47433;SDS011;33184;48.774;8.918;2023-05-29T05:54:24;6.68;;;3.20;;
47433;SDS011;33184;48.774;8.918;2023-05-29T05:59:46;6.57;;;3.17;;
47433;SDS011;33184;48.774;8.918;2023-05-29T06:05:07;7.05;;;3.60;;
47433;SDS011;33184;48.774;8.918;2023-05-29T06:10:28;7.80;;;4.05;;
47433;SDS011;33184;48.774;8.918;2023-05-29T06:15:49;10.18;;;3.83;;
47433;SDS011;33184;48.774;8.918;2023-05-29T06:21:09;6.55;;;2.80;;
47433;SDS011;33184;48.774;8.918;2023-05-29T06:26:38;5.60;;;2.47;;
47433;SDS011;33184;48.774;8.918;2023-05-29T06:32:01;4.15;;;2.67;;
47433;SDS011;33184;48.774;8.918;2023-05-29T06:37:21;7.95;;;2.95;;
47433;SDS011;33184;48.774;8.918;2023-05-29T06:42:42;5.18;;;3.08;;
47433;SDS011;33184;48.774;8.918;2023-05-29T06:48:08;3.92;;;2.28;;
47433;SDS011;33184;48.774;8.918;2023-05-29T06:53:29;5.18;;;2.08;;
47433;SDS011;33184;48.774;8.918;2023-05-29T06:58:51;3.80;;;2.42;;
47433;SDS011;33184;48.774;8.918;2023-05-29T07:04:11;7.82;;;2.65;;
47433;SDS011;33184;48.774;8.918;2023-05-29T07:09:32;8.85;;;3.08;;
47433;SDS011;33184;48.774;8.918;2023-05-29T07:14:53;6.57;;;2.25;;
47433;SDS011;33184;48.774;8.918;2023-05-29T07:20:14;6.95;;;3.00;;
47433;SDS011;33184;48.774;8.918;2023-05-29T07:25:35;6.35;;;2.95;;
47433;SDS011;33184;48.774;8.918;2023-05-29T07:30:56;6.47;;;3.00;;
47433;SDS011;33184;48.774;8.918;2023-05-29T07:36:18;5.18;;;2.60;;
47433;SDS011;33184;48.774;8.918;2023-05-29T07:41:40;8.85;;;2.80;;
47433;SDS011;33184;48.774;8.918;2023-05-29T07:47:00;7.82;;;2.88;;
47433;SDS011;33184;48.774;8.918;2023-05-29T07:52:37;7.75;;;2.95;;
47433;SDS011;33184;48.774;8.918;2023-05-29T07:57:58;8.20;;;2.85;;
47433;SDS011;33184;48.774;8.918;2023-05-29T08:03:20;9.18;;;2.80;;
47433;SDS011;33184;48.774;8.918;2023-05-29T08:09:00;8.85;;;2.78;;
47433;SDS011;33184;48.774;8.918;2023-05-29T08:14:22;4.45;;;2.92;;
47433;SDS011;33184;48.774;8.918;2023-05-29T08:19:42;5.63;;;2.40;;
47433;SDS011;33184;48.774;8.918;2023-05-29T08:25:03;6.00;;;2.55;;
47433;SDS011;33184;48.774;8.918;2023-05-29T08:30:24;9.18;;;3.20;;
47433;SDS011;33184;48.774;8.918;2023-05-29T08:35:45;7.53;;;3.03;;
47433;SDS011;33184;48.774;8.918;2023-05-29T08:41:05;6.50;;;2.92;;
47433;SDS011;33184;48.774;8.918;2023-05-29T08:46:28;4.82;;;2.70;;
47433;SDS011;33184;48.774;8.918;2023-05-29T08:51:49;6.90;;;3.08;;
47433;SDS011;33184;48.774;8.918;2023-05-29T08:57:17;7.60;;;2.97;;
47433;SDS011;33184;48.774;8.918;2023-05-29T09:02:40;8.35;;;3.10;;
47433;SDS011;33184;48.774;8.918;2023-05-29T09:08:03;7.45;;;2.95;;
47433;SDS011;33184;48.774;8.918;2023-05-29T09:13:25;4.90;;;2.85;;
47433;SDS011;33184;48.774;8.918;2023-05-29T09:18:45;5.00;;;2.50;;
47433;SDS011;33184;48.774;8.918;2023-05-29T09:24:06;5.03;;;2.30;;
47433;SDS011;33184;48.774;8.918;2023-05-29T09:29:30;7.82;;;2.67;;
47433;SDS011;33184;48.774;8.918;2023-05-29T09:34:52;8.40;;;2.85;;
47433;SDS011;33184;48.774;8.918;2023-05-29T09:40:14;5.85;;;3.75;;
47433;SDS011;33184;48.774;8.918;2023-05-29T09:45:38;5.13;;;2.65;;
47433;SDS011;33184;48.774;8.918;2023-05-29T09:51:00;6.47;;;2.67;;
47433;SDS011;33184;48.774;8.918;2023-05-29T09:56:22;3.25;;;2.33;;
47433;SDS011;33184;48.774;8.918;2023-05-29T10:01:44;8.95;;;3.25;;
47433;SDS011;33184;48.774;8.918;2023-05-29T10:07:08;6.55;;;3.22;;
47433;SDS011;33184;48.774;8.918;2023-05-29T10:12:34;6.38;;;2.40;;
47433;SDS011;33184;48.774;8.918;2023-05-29T10:18:11;4.65;;;2.17;;
47433;SDS011;33184;48.774;8.918;2023-05-29T10:23:36;5.70;;;2.47;;
47433;SDS011;33184;48.774;8.918;2023-05-29T10:29:01;7.07;;;3.50;;
47433;SDS011;33184;48.774;8.918;2023-05-29T10:34:30;9.35;;;3.63;;
47433;SDS011;33184;48.774;8.918;2023-05-29T10:40:17;10.02;;;1.98;;
47433;SDS011;33184;48.774;8.918;2023-05-29T10:51:23;9.00;;;2.28;;
47433;SDS011;33184;48.774;8.918;2023-05-29T10:56:51;6.50;;;2.58;;
47433;SDS011;33184;48.774;8.918;2023-05-29T11:02:19;6.35;;;3.03;;
47433;SDS011;33184;48.774;8.918;2023-05-29T11:08:03;3.67;;;2.22;;
47433;SDS011;33184;48.774;8.918;2023-05-29T11:13:25;6.57;;;2.38;;
47433;SDS011;33184;48.774;8.918;2023-05-29T11:18:57;3.00;;;1.92;;
47433;SDS011;33184;48.774;8.918;2023-05-29T11:29:46;3.20;;;1.73;;
47433;SDS011;33184;48.774;8.918;2023-05-29T11:35:09;6.25;;;1.90;;
47433;SDS011;33184;48.774;8.918;2023-05-29T11:40:35;6.68;;;2.92;;
47433;SDS011;33184;48.774;8.918;2023-05-29T11:45:57;4.22;;;2.10;;
47433;SDS011;33184;48.774;8.918;2023-05-29T11:51:21;6.40;;;1.90;;
47433;SDS011;33184;48.774;8.918;2023-05-29T11:56:42;5.38;;;1.92;;
47433;SDS011;33184;48.774;8.918;2023-05-29T12:02:02;4.88;;;1.67;;
47433;SDS011;33184;48.774;8.918;2023-05-29T12:07:23;3.15;;;1.55;;
47433;SDS011;33184;48.774;8.918;2023-05-29T12:12:47;4.00;;;1.92;;
47433;SDS011;33184;48.774;8.918;2023-05-29T12:18:11;4.63;;;1.55;;
47433;SDS011;33184;48.774;8.918;2023-05-29T12:23:32;4.10;;;1.42;;
47433;SDS011;33184;48.774;8.918;2023-05-29T12:28:52;3.05;;;1.80;;
47433;SDS011;33184;48.774;8.918;2023-05-29T12:34:13;4.55;;;1.40;;
47433;SDS011;33184;48.774;8.918;2023-05-29T12:39:35;5.40;;;1.58;;
47433;SDS011;33184;48.774;8.918;2023-05-29T12:44:56;4.10;;;1.85;;
47433;SDS011;33184;48.774;8.918;2023-05-29T12:50:24;1.75;;;1.35;;
47433;SDS011;33184;48.774;8.918;2023-05-29T12:55:48;1.75;;;1.50;;
47433;SDS011;33184;48.774;8.918;2023-05-29T13:01:12;3.47;;;1.38;;
47433;SDS011;33184;48.774;8.918;2023-05-29T13:06:35;6.13;;;1.55;;
47433;SDS011;33184;48.774;8.918;2023-05-29T13:11:57;3.03;;;1.55;;
47433;SDS011;33184;48.774;8.918;2023-05-29T13:17:17;3.92;;;1.55;;
47433;SDS011;33184;48.774;8.918;2023-05-29T13:22:38;2.05;;;1.13;;
47433;SDS011;33184;48.774;8.918;2023-05-29T13:28:00;3.13;;;1.50;;
47433;SDS011;33184;48.774;8.918;2023-05-29T13:33:21;2.30;;;1.50;;
47433;SDS011;33184;48.774;8.918;2023-05-29T13:38:41;2.50;;;1.52;;
47433;SDS011;33184;48.774;8.918;2023-05-29T13:44:02;2.70;;;1.70;;
47433;SDS011;33184;48.774;8.918;2023-05-29T13:49:23;1.73;;;1.52;;
47433;SDS011;33184;48.774;8.918;2023-05-29T13:54:43;3.97;;;1.20;;
47433;SDS011;33184;48.774;8.918;2023-05-29T14:00:04;5.70;;;1.38;;
47433;SDS011;33184;48.774;8.918;2023-05-29T14:05:25;2.83;;;1.88;;
47433;SDS011;33184;48.774;8.918;2023-05-29T14:10:46;2.20;;;1.50;;
47433;SDS011;33184;48.774;8.918;2023-05-29T14:16:06;3.30;;;1.40;;
47433;SDS011;33184;48.774;8.918;2023-05-29T14:21:27;3.22;;;1.35;;
47433;SDS011;33184;48.774;8.918;2023-05-29T14:26:47;2.15;;;1.30;;
47433;SDS011;33184;48.774;8.918;2023-05-29T14:32:08;5.50;;;1.48;;
47433;SDS011;33184;48.774;8.918;2023-05-29T14:37:29;2.10;;;1.40;;
47433;SDS011;33184;48.774;8.918;2023-05-29T14:42:49;3.28;;;1.38;;
47433;SDS011;33184;48.774;8.918;2023-05-29T14:48:10;3.10;;;1.80;;
47433;SDS011;33184;48.774;8.918;2023-05-29T14:53:31;4.70;;;1.40;;
47433;SDS011;33184;48.774;8.918;2023-05-29T14:58:52;1.88;;;1.27;;
47433;SDS011;33184;48.774;8.918;2023-05-29T15:04:13;7.20;;;1.73;;
47433;SDS011;33184;48.774;8.918;2023-05-29T15:09:34;2.08;;;1.52;;
47433;SDS011;33184;48.774;8.918;2023-05-29T15:14:54;2.13;;;1.80;;
47433;SDS011;33184;48.774;8.918;2023-05-29T15:20:15;7.00;;;1.45;;
47433;SDS011;33184;48.774;8.918;2023-05-29T15:25:37;2.88;;;1.20;;
47433;SDS011;33184;48.774;8.918;2023-05-29T15:30:58;2.50;;;1.20;;
47433;SDS011;33184;48.774;8.918;2023-05-29T15:36:18;4.00;;;1.50;;
47433;SDS011;33184;48.774;8.918;2023-05-29T15:41:41;3.80;;;1.10;;
47433;SDS011;33184;48.774;8.918;2023-05-29T15:47:01;1.42;;;1.05;;
47433;SDS011;33184;48.774;8.918;2023-05-29T15:52:22;1.67;;;1.30;;
47433;SDS011;33184;48.774;8.918;2023-05-29T15:57:42;2.95;;;1.48;;
47433;SDS011;33184;48.774;8.918;2023-05-29T16:03:04;1.77;;;1.40;;
47433;SDS011;33184;48.774;8.918;2023-05-29T16:08:25;2.50;;;1.17;;
47433;SDS011;33184;48.774;8.918;2023-05-29T16:13:46;2.08;;;1.60;;
47433;SDS011;33184;48.774;8.918;2023-05-29T16:19:07;4.28;;;1.40;;
47433;SDS011;33184;48.774;8.918;2023-05-29T16:24:28;1.80;;;1.10;;
47433;SDS011;33184;48.774;8.918;2023-05-29T16:29:48;3.75;;;1.15;;
47433;SDS011;33184;48.774;8.918;2023-05-29T16:35:09;2.75;;;1.10;;
47433;SDS011;33184;48.774;8.918;2023-05-29T16:40:30;3.25;;;1.60;;
47433;SDS011;33184;48.774;8.918;2023-05-29T16:45:50;3.05;;;1.60;;
47433;SDS011;33184;48.774;8.918;2023-05-29T16:51:12;3.63;;;1.10;;
47433;SDS011;33184;48.774;8.918;2023-05-29T16:56:32;1.73;;;1.50;;
47433;SDS011;33184;48.774;8.918;2023-05-29T17:01:53;1.42;;;1.20;;
47433;SDS011;33184;48.774;8.918;2023-05-29T17:07:14;3.20;;;1.33;;
47433;SDS011;33184;48.774;8.918;2023-05-29T17:12:34;1.80;;;1.10;;
47433;SDS011;33184;48.774;8.918;2023-05-29T17:17:55;1.98;;;1.20;;
47433;SDS011;33184;48.774;8.918;2023-05-29T17:23:18;3.88;;;1.20;;
47433;SDS011;33184;48.774;8.918;2023-05-29T17:28:39;3.78;;;1.45;;
47433;SDS011;33184;48.774;8.918;2023-05-29T17:33:59;2.92;;;1.20;;
47433;SDS011;33184;48.774;8.918;2023-05-29T17:39:20;1.98;;;1.20;;
47433;SDS011;33184;48.774;8.918;2023-05-29T17:44:41;2.95;;;1.20;;
47433;SDS011;33184;48.774;8.918;2023-05-29T17:50:02;2.05;;;1.20;;
47433;SDS011;33184;48.774;8.918;2023-05-29T17:55:22;3.50;;;1.40;;
47433;SDS011;33184;48.774;8.918;2023-05-29T18:00:44;2.10;;;1.25;;
47433;SDS011;33184;48.774;8.918;2023-05-29T18:06:05;1.55;;;1.40;;
47433;SDS011;33184;48.774;8.918;2023-05-29T18:11:26;1.77;;;1.15;;
47433;SDS011;33184;48.774;8.918;2023-05-29T18:16:46;3.80;;;2.45;;
47433;SDS011;33184;48.774;8.918;2023-05-29T18:22:07;2.90;;;1.42;;
47433;SDS011;33184;48.774;8.918;2023-05-29T18:27:28;4.68;;;1.33;;
47433;SDS011;33184;48.774;8.918;2023-05-29T18:32:49;1.98;;;1.30;;
47433;SDS011;33184;48.774;8.918;2023-05-29T18:38:10;3.38;;;1.60;;
47433;SDS011;33184;48.774;8.918;2023-05-29T18:43:32;1.75;;;1.58;;
47433;SDS011;33184;48.774;8.918;2023-05-29T18:48:52;4.55;;;1.90;;
47433;SDS011;33184;48.774;8.918;2023-05-29T18:54:13;3.03;;;1.88;;
47433;SDS011;33184;48.774;8.918;2023-05-29T18:59:33;4.28;;;2.25;;
47433;SDS011;33184;48.774;8.918;2023-05-29T19:04:54;2.45;;;1.48;;
47433;SDS011;33184;48.774;8.918;2023-05-29T19:10:15;4.25;;;1.50;;
47433;SDS011;33184;48.774;8.918;2023-05-29T19:15:36;5.55;;;1.67;;
47433;SDS011;33184;48.774;8.918;2023-05-29T19:20:57;3.55;;;1.85;;
47433;SDS011;33184;48.774;8.918;2023-05-29T19:26:18;6.15;;;1.90;;
47433;SDS011;33184;48.774;8.918;2023-05-29T19:31:38;2.88;;;1.77;;
47433;SDS011;33184;48.774;8.918;2023-05-29T19:36:59;2.55;;;1.50;;
47433;SDS011;33184;48.774;8.918;2023-05-29T19:42:20;2.97;;;2.22;;
47433;SDS011;33184;48.774;8.918;2023-05-29T19:47:43;2.90;;;1.90;;
47433;SDS011;33184;48.774;8.918;2023-05-29T19:53:03;4.28;;;2.05;;
47433;SDS011;33184;48.774;8.918;2023-05-29T19:58:24;3.17;;;1.90;;
47433;SDS011;33184;48.774;8.918;2023-05-29T20:03:45;5.22;;;2.00;;
47433;SDS011;33184;48.774;8.918;2023-05-29T20:09:05;4.03;;;2.00;;
47433;SDS011;33184;48.774;8.918;2023-05-29T20:14:26;3.97;;;2.35;;
47433;SDS011;33184;48.774;8.918;2023-05-29T20:19:47;6.13;;;2.53;;
47433;SDS011;33184;48.774;8.918;2023-05-29T20:25:08;3.33;;;2.35;;
47433;SDS011;33184;48.774;8.918;2023-05-29T20:30:29;3.10;;;2.10;;
47433;SDS011;33184;48.774;8.918;2023-05-29T20:35:50;3.22;;;1.92;;
47433;SDS011;33184;48.774;8.918;2023-05-29T20:41:10;6.03;;;2.50;;
47433;SDS011;33184;48.774;8.918;2023-05-29T20:46:35;4.55;;;2.28;;
47433;SDS011;33184;48.774;8.918;2023-05-29T20:51:56;4.20;;;2.45;;
47433;SDS011;33184;48.774;8.918;2023-05-29T20:57:17;3.50;;;2.10;;
47433;SDS011;33184;48.774;8.918;2023-05-29T21:02:40;4.53;;;2.38;;
47433;SDS011;33184;48.774;8.918;2023-05-29T21:08:02;2.65;;;1.83;;
47433;SDS011;33184;48.774;8.918;2023-05-29T21:13:23;4.50;;;2.00;;
47433;SDS011;33184;48.774;8.918;2023-05-29T21:18:43;3.33;;;1.75;;
47433;SDS011;33184;48.774;8.918;2023-05-29T21:24:04;5.38;;;1.95;;
47433;SDS011;33184;48.774;8.918;2023-05-29T21:29:30;2.83;;;2.42;;
47433;SDS011;33184;48.774;8.918;2023-05-29T21:34:51;3.85;;;1.75;;
47433;SDS011;33184;48.774;8.918;2023-05-29T21:40:12;3.22;;;2.05;;
47433;SDS011;33184;48.774;8.918;2023-05-29T21:45:33;3.65;;;1.90;;
47433;SDS011;33184;48.774;8.918;2023-05-29T21:50:54;4.40;;;1.70;;
47433;SDS011;33184;48.774;8.918;2023-05-29T21:56:15;2.92;;;2.20;;
47433;SDS011;33184;48.774;8.918;2023-05-29T22:01:36;3.45;;;2.05;;
47433;SDS011;33184;48.774;8.918;2023-05-29T22:06:57;3.22;;;1.65;;
47433;SDS011;33184;48.774;8.918;2023-05-29T22:12:17;2.78;;;2.15;;
47433;SDS011;33184;48.774;8.918;2023-05-29T22:17:38;3.65;;;2.13;;
47433;SDS011;33184;48.774;8.918;2023-05-29T22:23:00;2.78;;;1.88;;
47433;SDS011;33184;48.774;8.918;2023-05-29T22:28:24;4.03;;;1.90;;
47433;SDS011;33184;48.774;8.918;2023-05-29T22:33:45;3.45;;;2.22;;
47433;SDS011;33184;48.774;8.918;2023-05-29T22:39:06;3.03;;;1.70;;
47433;SDS011;33184;48.774;8.918;2023-05-29T22:44:27;2.65;;;2.05;;
47433;SDS011;33184;48.774;8.918;2023-05-29T22:49:47;2.10;;;1.88;;
47433;SDS011;33184;48.774;8.918;2023-05-29T22:55:08;2.85;;;1.92;;
47433;SDS011;33184;48.774;8.918;2023-05-29T23:00:30;5.03;;;2.35;;
47433;SDS011;33184;48.774;8.918;2023-05-29T23:05:50;4.13;;;2.00;;
47433;SDS011;33184;48.774;8.918;2023-05-29T23:11:11;3.30;;;1.70;;
47433;SDS011;33184;48.774;8.918;2023-05-29T23:16:31;5.07;;;2.30;;
47433;SDS011;33184;48.774;8.918;2023-05-29T23:21:52;3.10;;;1.52;;
47433;SDS011;33184;48.774;8.918;2023-05-29T23:27:12;4.75;;;1.77;;
47433;SDS011;33184;48.774;8.918;2023-05-29T23:32:33;3.22;;;2.05;;
47433;SDS011;33184;48.774;8.918;2023-05-29T23:37:54;4.57;;;1.98;;
47433;SDS011;33184;48.774;8.918;2023-05-29T23:43:14;5.38;;;1.75;;
47433;SDS011;33184;48.774;8.918;2023-05-29T23:48:35;2.40;;;1.65;;
47433;SDS011;33184;48.774;8.918;2023-05-29T23:53:58;2.42;;;1.70;;
47433;SDS011;33184;48.774;8.918;2023-05-29T23:59:19;3.78;;;1.90;;
